Time;durP1;ratioP1;P1;durP2;ratioP2;P2;SDS_P1;SDS_P2;PMS_P1;PMS_P2;Temp;Humidity;BMP_temperature;BMP_pressure;BME280_temperature;BME280_humidity;BME280_pressure;Samples;Min_cycle;Max_cycle;Signal;HPM_P1;HPM_P2
2021/01/03 00:00:43;;;;;;;;;;;;;;;22.62;31.71;101393.56;3096856;28;114775;-57
2021/01/03 00:02:15;;;;;;;;;;;;;;;22.62;31.64;101395.59;3096868;28;114267;-57
2021/01/03 00:03:46;;;;;;;;;;;;;;;22.61;31.70;101393.91;3096064;28;114814;-58
2021/01/03 00:05:21;;;;;;;;;;;;;;;22.60;31.67;101397.88;3093163;28;116304;-58
2021/01/03 00:06:53;;;;;;;;;;;;;;;22.60;31.82;101400.69;3096964;28;114434;-57
2021/01/03 00:08:24;;;;;;;;;;;;;;;22.59;31.81;101405.47;3097783;28;114806;-57
2021/01/03 00:10:02;;;;;;;;;;;;;;;22.59;31.83;101396.19;3099359;28;114790;-57
2021/01/03 00:11:34;;;;;;;;;;;;;;;22.60;31.87;101403.50;3100884;28;115897;-57
2021/01/03 00:13:06;;;;;;;;;;;;;;;22.60;31.92;101403.50;3098419;28;115894;-57
2021/01/03 00:14:37;;;;;;;;;;;;;;;22.61;31.79;101399.53;3095751;28;114710;-58
2021/01/03 00:16:09;;;;;;;;;;;;;;;22.63;31.91;101403.72;3097509;28;114588;-57
2021/01/03 00:17:41;;;;;;;;;;;;;;;22.65;32.04;101409.03;3097644;28;116386;-57
2021/01/03 00:19:13;;;;;;;;;;;;;;;22.66;31.92;101398.59;3095146;28;114972;-57
2021/01/03 00:20:48;;;;;;;;;;;;;;;22.68;31.83;101407.56;3101933;28;114813;-58
2021/01/03 00:22:19;;;;;;;;;;;;;;;22.70;32.03;101408.13;3093192;28;114635;-58
2021/01/03 00:23:51;;;;;;;;;;;;;;;22.71;31.91;101409.81;3096452;28;114401;-58
2021/01/03 00:25:24;;;;;;;;;;;;;;;22.73;31.71;101407.50;3095208;28;114295;-57
2021/01/03 00:26:57;;;;;;;;;;;;;;;22.75;31.95;101408.03;3096972;28;114546;-57
2021/01/03 00:28:30;;;;;;;;;;;;;;;22.77;31.88;101411.34;3095501;28;113925;-58
2021/01/03 00:30:03;;;;;;;;;;;;;;;22.77;32.15;101409.38;3098951;28;114314;-57
2021/01/03 00:31:41;;;;;;;;;;;;;;;22.79;32.01;101409.06;3097251;28;114811;-57
2021/01/03 00:33:12;;;;;;;;;;;;;;;22.79;31.94;101409.06;3091062;28;115745;-57
2021/01/03 00:34:43;;;;;;;;;;;;;;;22.79;32.15;101412.72;3089229;28;114066;-57
2021/01/03 00:36:15;;;;;;;;;;;;;;;22.80;31.95;101411.59;3097566;28;114514;-57
2021/01/03 00:37:47;;;;;;;;;;;;;;;22.81;31.97;101418.03;3093725;28;114701;-57
2021/01/03 00:39:18;;;;;;;;;;;;;;;22.81;32.12;101423.66;3092128;28;114300;-57
2021/01/03 00:40:50;;;;;;;;;;;;;;;22.80;31.93;101410.75;3087954;28;114342;-57
2021/01/03 00:42:22;;;;;;;;;;;;;;;22.81;31.99;101415.22;3097347;28;116120;-57
2021/01/03 00:43:53;;;;;;;;;;;;;;;22.81;31.99;101412.41;3094770;28;114763;-57
2021/01/03 00:45:25;;;;;;;;;;;;;;;22.82;31.99;101414.06;3096558;28;114640;-57
2021/01/03 00:46:56;;;;;;;;;;;;;;;22.81;32.00;101418.03;3098558;28;114667;-57
2021/01/03 00:48:28;;;;;;;;;;;;;;;22.80;32.07;101416.38;3094092;28;115512;-58
2021/01/03 00:49:59;;;;;;;;;;;;;;;22.80;32.16;101411.59;3092551;28;114955;-58
2021/01/03 00:51:30;;;;;;;;;;;;;;;22.79;32.00;101414.72;3092620;28;115327;-58
2021/01/03 00:53:02;;;;;;;;;;;;;;;22.79;32.08;101409.06;3099365;28;114503;-57
2021/01/03 00:54:34;;;;;;;;;;;;;;;22.77;32.04;101412.19;3100350;28;115233;-58
2021/01/03 00:56:05;;;;;;;;;;;;;;;22.76;32.01;101404.06;3094133;28;115512;-58
2021/01/03 00:57:36;;;;;;;;;;;;;;;22.75;32.01;101408.88;3093997;28;114265;-58
2021/01/03 00:59:07;;;;;;;;;;;;;;;22.74;32.01;101410.00;3096057;28;114308;-58
2021/01/03 01:00:38;;;;;;;;;;;;;;;22.73;31.92;101410.31;3093009;28;114217;-58
2021/01/03 01:02:10;;;;;;;;;;;;;;;22.72;32.17;101403.00;3089373;28;115157;-57
2021/01/03 01:03:41;;;;;;;;;;;;;;;22.71;32.23;101409.81;3098268;28;114660;-57
2021/01/03 01:05:13;;;;;;;;;;;;;;;22.68;32.39;101401.94;3095345;28;115709;-59
2021/01/03 01:06:44;;;;;;;;;;;;;;;22.67;32.32;101405.91;3093969;28;116080;-59
2021/01/03 01:08:16;;;;;;;;;;;;;;;22.66;32.26;101405.09;3096944;28;115854;-59
2021/01/03 01:09:47;;;;;;;;;;;;;;;22.64;32.31;101407.34;3095241;28;115527;-57
2021/01/03 01:11:22;;;;;;;;;;;;;;;22.63;32.09;101409.34;3096071;28;116108;-57
2021/01/03 01:12:55;;;;;;;;;;;;;;;22.62;32.39;101413.28;3095126;28;115856;-57
2021/01/03 01:14:28;;;;;;;;;;;;;;;22.60;32.39;101415.59;3092645;28;115198;-57
2021/01/03 01:16:00;;;;;;;;;;;;;;;22.58;32.45;101409.44;3092424;28;114811;-57
2021/01/03 01:17:32;;;;;;;;;;;;;;;22.57;32.53;101406.94;3088076;28;116034;-57
2021/01/03 01:19:04;;;;;;;;;;;;;;;22.56;32.42;101402.47;3088836;28;115956;-57
2021/01/03 01:20:35;;;;;;;;;;;;;;;22.52;33.14;101402.25;3090092;28;115976;-56
2021/01/03 01:22:08;;;;;;;;;;;;;;;22.48;32.81;101401.22;3086285;28;116317;-62
2021/01/03 01:23:40;;;;;;;;;;;;;;;22.05;29.67;101396.91;3093132;28;115276;-56
2021/01/03 01:25:14;;;;;;;;;;;;;;;21.72;28.37;101396.03;3098655;28;115896;-61
2021/01/03 01:26:45;;;;;;;;;;;;;;;21.21;27.76;101395.97;3093862;28;114163;-61
2021/01/03 01:28:20;;;;;;;;;;;;;;;20.84;27.80;101403.16;3094771;28;114945;-64
2021/01/03 01:29:53;;;;;;;;;;;;;;;20.37;28.09;101403.97;3093468;28;113988;-59
2021/01/03 01:31:24;;;;;;;;;;;;;;;20.16;28.07;101401.63;3095494;28;114374;-59
2021/01/03 01:32:56;;;;;;;;;;;;;;;20.15;29.38;101403.59;3097243;28;114175;-61
2021/01/03 01:34:28;;;;;;;;;;;;;;;20.37;31.36;101398.34;3091144;28;114207;-63
2021/01/03 01:36:01;;;;;;;;;;;;;;;20.69;31.21;101408.09;3093008;28;114416;-74
2021/01/03 01:37:42;;;;;;;;;;;;;;;20.83;31.44;101409.91;3094439;28;115037;-58
2021/01/03 01:39:26;;;;;;;;;;;;;;;21.01;31.22;101404.63;3092991;28;114375;-57
2021/01/03 01:40:57;;;;;;;;;;;;;;;21.09;31.07;101410.41;3091816;28;114208;-59
2021/01/03 01:42:29;;;;;;;;;;;;;;;21.09;31.38;101412.38;3091677;28;114525;-58
2021/01/03 01:44:00;;;;;;;;;;;;;;;21.16;31.35;101410.09;3093672;28;114295;-58
2021/01/03 01:45:33;;;;;;;;;;;;;;;21.18;31.19;101408.63;3086424;28;114247;-58
2021/01/03 01:47:11;;;;;;;;;;;;;;;21.22;31.25;101411.66;3095737;28;114350;-58
2021/01/03 01:48:46;;;;;;;;;;;;;;;21.24;31.54;101415.88;3094191;28;113654;-59
2021/01/03 01:50:21;;;;;;;;;;;;;;;21.26;31.83;101409.91;3095588;28;114848;-58
2021/01/03 01:51:54;;;;;;;;;;;;;;;21.27;32.12;101420.88;3087420;28;116699;-58
2021/01/03 01:53:46;;;;;;;;;;;;;;;21.28;32.00;101416.09;3095747;28;114408;-57
2021/01/03 01:55:23;;;;;;;;;;;;;;;21.28;32.30;101410.47;3092808;28;116139;-58
2021/01/03 01:56:55;;;;;;;;;;;;;;;21.27;32.71;101418.06;3097380;28;116621;-59
2021/01/03 01:58:44;;;;;;;;;;;;;;;21.27;32.47;101411.59;3093946;28;115635;-58
2021/01/03 02:00:16;;;;;;;;;;;;;;;21.27;32.56;101412.44;3097110;28;114430;-58
2021/01/03 02:01:56;;;;;;;;;;;;;;;21.27;32.78;101417.22;3095920;28;115158;-58
2021/01/03 02:03:34;;;;;;;;;;;;;;;21.27;32.92;101412.44;3086390;28;114171;-58
2021/01/03 02:05:26;;;;;;;;;;;;;;;21.26;32.50;101421.16;3093602;28;115012;-58
2021/01/03 02:07:02;;;;;;;;;;;;;;;21.26;32.68;101412.72;3094418;28;114742;-58
2021/01/03 02:08:48;;;;;;;;;;;;;;;21.23;32.80;101408.56;3086543;28;116985;-58
2021/01/03 02:10:24;;;;;;;;;;;;;;;21.23;33.17;101411.38;3094673;28;115037;-58
2021/01/03 02:12:10;;;;;;;;;;;;;;;21.22;33.02;101414.47;3098883;28;115228;-58
2021/01/03 02:13:44;;;;;;;;;;;;;;;21.19;33.11;101409.47;3102140;28;114741;-58
2021/01/03 02:15:20;;;;;;;;;;;;;;;21.18;32.96;101417.06;3093706;27;114822;-58
2021/01/03 02:16:52;;;;;;;;;;;;;;;21.17;33.23;101411.72;3091784;28;116797;-58
2021/01/03 02:18:23;;;;;;;;;;;;;;;21.15;33.45;101416.84;3089569;28;115136;-57
2021/01/03 02:19:57;;;;;;;;;;;;;;;21.14;33.71;101409.53;3089636;28;116021;-57
2021/01/03 02:21:40;;;;;;;;;;;;;;;21.12;33.87;101418.22;3086652;28;114364;-57
2021/01/03 02:23:15;;;;;;;;;;;;;;;21.10;33.77;101416.88;3094944;28;116088;-57
2021/01/03 02:25:06;;;;;;;;;;;;;;;21.09;34.03;101426.41;3090912;28;115123;-58
2021/01/03 02:26:51;;;;;;;;;;;;;;;21.06;34.06;101421.41;3090442;28;116421;-57
2021/01/03 02:28:26;;;;;;;;;;;;;;;21.05;34.18;101422.53;3094187;28;115239;-58
2021/01/03 02:29:59;;;;;;;;;;;;;;;21.02;34.28;101421.19;3090784;28;114902;-58
2021/01/03 02:31:36;;;;;;;;;;;;;;;21.00;34.45;101422.59;3088565;28;114621;-57
2021/01/03 02:33:11;;;;;;;;;;;;;;;20.97;34.29;101420.41;3085013;28;116336;-57
2021/01/03 02:34:45;;;;;;;;;;;;;;;20.96;34.53;101422.38;3098972;28;114752;-57
2021/01/03 02:36:25;;;;;;;;;;;;;;;20.94;34.36;101416.22;3085402;28;114044;-58
2021/01/03 02:38:00;;;;;;;;;;;;;;;20.92;34.61;101426.94;3085904;28;114738;-57
2021/01/03 02:39:31;;;;;;;;;;;;;;;20.90;34.69;101422.72;3084454;28;114041;-57
2021/01/03 02:41:10;;;;;;;;;;;;;;;20.88;34.92;101420.25;3097813;28;114064;-59
2021/01/03 02:42:44;;;;;;;;;;;;;;;20.86;34.78;101423.34;3109191;28;114419;-59
2021/01/03 02:44:15;;;;;;;;;;;;;;;20.85;34.57;101416.03;3109042;28;115409;-58
2021/01/03 02:45:47;;;;;;;;;;;;;;;20.83;35.01;101415.53;3094801;28;113991;-57
2021/01/03 02:47:21;;;;;;;;;;;;;;;20.82;34.73;101413.00;3090516;28;115504;-58
2021/01/03 02:48:54;;;;;;;;;;;;;;;20.80;35.06;101415.28;3095128;28;113771;-57
2021/01/03 02:50:26;;;;;;;;;;;;;;;20.78;34.77;101415.56;3097160;28;114284;-58
2021/01/03 02:52:00;;;;;;;;;;;;;;;20.76;34.91;101412.22;3097217;28;114260;-58
2021/01/03 02:53:32;;;;;;;;;;;;;;;20.75;35.00;101410.56;3095308;28;114247;-58
2021/01/03 02:55:05;;;;;;;;;;;;;;;20.73;35.01;101404.41;3098355;28;114656;-58
2021/01/03 02:56:36;;;;;;;;;;;;;;;20.71;35.15;101409.50;3089954;28;115073;-58
2021/01/03 02:58:08;;;;;;;;;;;;;;;20.71;35.07;101401.06;3106871;28;115107;-58
2021/01/03 02:59:40;;;;;;;;;;;;;;;20.69;35.17;101410.91;3109275;28;115109;-59
2021/01/03 03:01:12;;;;;;;;;;;;;;;20.67;35.17;101411.19;3094282;27;115189;-58
2021/01/03 03:02:43;;;;;;;;;;;;;;;20.64;35.48;101409.00;3092108;28;115647;-58
2021/01/03 03:04:14;;;;;;;;;;;;;;;20.64;35.59;101400.56;3090753;28;115391;-58
2021/01/03 03:05:45;;;;;;;;;;;;;;;20.61;35.23;101404.00;3091428;28;114365;-58
2021/01/03 03:07:17;;;;;;;;;;;;;;;20.62;35.42;101405.66;3104554;27;114106;-57
2021/01/03 03:08:48;;;;;;;;;;;;;;;20.58;35.60;101389.72;3094658;28;114947;-57
2021/01/03 03:10:21;;;;;;;;;;;;;;;20.58;35.61;101401.75;3097760;28;115496;-59
2021/01/03 03:11:54;;;;;;;;;;;;;;;20.58;35.59;101398.13;3097660;28;114083;-57
2021/01/03 03:13:25;;;;;;;;;;;;;;;20.53;36.05;101399.03;3101860;28;115247;-57
2021/01/03 03:14:56;;;;;;;;;;;;;;;20.52;36.02;101397.34;3099961;27;114234;-57
2021/01/03 03:16:28;;;;;;;;;;;;;;;20.51;35.79;101389.22;3094876;28;114468;-56
2021/01/03 03:18:01;;;;;;;;;;;;;;;20.49;35.87;101391.50;3093756;28;115035;-58
2021/01/03 03:19:33;;;;;;;;;;;;;;;20.47;35.82;101390.94;3089758;28;116121;-57
2021/01/03 03:21:04;;;;;;;;;;;;;;;20.46;35.95;101387.31;3087292;28;115902;-57
2021/01/03 03:22:38;;;;;;;;;;;;;;;20.45;35.89;101396.00;3095581;28;115638;-57
2021/01/03 03:24:10;;;;;;;;;;;;;;;20.44;36.16;101391.56;3094595;28;115614;-57
2021/01/03 03:25:41;;;;;;;;;;;;;;;20.41;36.10;101391.00;3097037;28;116115;-57
2021/01/03 03:27:13;;;;;;;;;;;;;;;20.40;36.25;101389.31;3093591;28;116043;-57
2021/01/03 03:28:44;;;;;;;;;;;;;;;20.39;36.11;101384.03;3096531;28;114370;-57
2021/01/03 03:30:17;;;;;;;;;;;;;;;20.36;36.37;101384.59;3099577;28;114821;-57
2021/01/03 03:31:48;;;;;;;;;;;;;;;20.34;36.30;101384.91;3099697;28;115589;-57
2021/01/03 03:33:20;;;;;;;;;;;;;;;20.33;36.46;101382.41;3094147;28;115945;-57
2021/01/03 03:34:51;;;;;;;;;;;;;;;20.30;36.33;101378.22;3098262;28;114622;-58
2021/01/03 03:36:22;;;;;;;;;;;;;;;20.30;36.29;101375.41;3098728;28;115782;-58
2021/01/03 03:37:54;;;;;;;;;;;;;;;20.28;36.34;101380.44;3099535;28;115454;-58
2021/01/03 03:39:26;;;;;;;;;;;;;;;20.27;36.17;101375.13;3099110;28;115886;-58
2021/01/03 03:40:57;;;;;;;;;;;;;;;20.26;36.25;101371.47;3102780;28;115235;-58
2021/01/03 03:42:30;;;;;;;;;;;;;;;20.24;36.43;101381.34;3099765;28;115271;-58
2021/01/03 03:44:03;;;;;;;;;;;;;;;20.23;36.30;101366.47;3094995;28;114296;-58
2021/01/03 03:45:35;;;;;;;;;;;;;;;20.21;36.28;101365.94;3091023;28;113867;-58
2021/01/03 03:47:06;;;;;;;;;;;;;;;20.21;36.38;101363.13;3099921;28;113717;-58
2021/01/03 03:48:37;;;;;;;;;;;;;;;20.20;36.44;101367.06;3098157;28;114064;-59
2021/01/03 03:50:12;;;;;;;;;;;;;;;20.19;36.57;101368.19;3098948;28;114761;-58
2021/01/03 03:51:43;;;;;;;;;;;;;;;20.16;36.41;101365.16;3099392;28;114463;-58
2021/01/03 03:53:15;;;;;;;;;;;;;;;20.15;36.53;101363.47;3099165;28;114143;-58
2021/01/03 03:54:46;;;;;;;;;;;;;;;20.13;36.74;101363.75;3090733;28;114663;-58
2021/01/03 03:56:17;;;;;;;;;;;;;;;20.12;36.51;101364.06;3094663;28;113939;-58
2021/01/03 03:57:49;;;;;;;;;;;;;;;20.12;36.55;101366.88;3099740;28;114300;-58
2021/01/03 03:59:20;;;;;;;;;;;;;;;20.10;36.67;101367.16;3102731;28;114040;-58
2021/01/03 04:00:52;;;;;;;;;;;;;;;20.09;36.73;101368.28;3107537;28;113743;-59
2021/01/03 04:02:24;;;;;;;;;;;;;;;20.07;37.00;101364.13;3090444;28;114174;-59
2021/01/03 04:03:55;;;;;;;;;;;;;;;20.08;36.91;101360.19;3083974;28;114536;-59
2021/01/03 04:05:26;;;;;;;;;;;;;;;20.06;36.90;101356.81;3087288;28;115812;-59
2021/01/03 04:06:57;;;;;;;;;;;;;;;20.05;37.16;101364.41;3097279;28;113901;-59
2021/01/03 04:08:29;;;;;;;;;;;;;;;20.03;37.18;101360.22;3092129;28;115228;-59
2021/01/03 04:10:00;;;;;;;;;;;;;;;20.03;36.99;101357.44;3087772;28;114150;-59
2021/01/03 04:11:32;;;;;;;;;;;;;;;20.00;37.04;101356.03;3090042;28;114151;-59
2021/01/03 04:13:03;;;;;;;;;;;;;;;19.98;37.09;101355.50;3090017;28;115209;-59
2021/01/03 04:14:35;;;;;;;;;;;;;;;19.98;37.19;101359.16;3091771;28;114528;-58
2021/01/03 04:16:07;;;;;;;;;;;;;;;19.95;37.26;101362.53;3092185;28;114102;-59
2021/01/03 04:17:39;;;;;;;;;;;;;;;19.93;37.14;101359.19;3089447;28;115491;-59
2021/01/03 04:19:11;;;;;;;;;;;;;;;19.93;37.28;101353.59;3084561;28;115161;-59
2021/01/03 04:20:43;;;;;;;;;;;;;;;19.91;37.04;101353.03;3086626;28;114628;-59
2021/01/03 04:22:14;;;;;;;;;;;;;;;19.90;37.36;101354.16;3087237;28;115200;-59
2021/01/03 04:23:45;;;;;;;;;;;;;;;19.90;37.44;101353.31;3089696;28;114246;-57
2021/01/03 04:25:27;;;;;;;;;;;;;;;19.88;37.48;101350.81;3097386;27;114626;-58
2021/01/03 04:27:01;;;;;;;;;;;;;;;19.87;37.65;101351.94;3097839;28;114680;-58
2021/01/03 04:28:33;;;;;;;;;;;;;;;19.86;37.57;101355.03;3103812;28;114608;-58
2021/01/03 04:30:06;;;;;;;;;;;;;;;19.83;37.87;101353.66;3107509;27;114728;-58
2021/01/03 04:31:37;;;;;;;;;;;;;;;19.83;37.81;101350.03;3100576;28;115007;-58
2021/01/03 04:33:08;;;;;;;;;;;;;;;19.81;37.84;101349.47;3108500;28;115139;-58
2021/01/03 04:34:42;;;;;;;;;;;;;;;19.79;37.96;101355.38;3085460;28;115891;-58
2021/01/03 04:36:14;;;;;;;;;;;;;;;19.78;37.84;101350.06;3087247;28;115132;-58
2021/01/03 04:37:45;;;;;;;;;;;;;;;19.78;37.95;101352.88;3109097;28;115921;-59
2021/01/03 04:39:17;;;;;;;;;;;;;;;19.76;37.84;101357.94;3101144;28;115955;-59
2021/01/03 04:40:53;;;;;;;;;;;;;;;19.73;37.96;101358.50;3089442;28;116028;-59
2021/01/03 04:42:27;;;;;;;;;;;;;;;19.72;37.90;101352.06;3094225;28;115760;-59
2021/01/03 04:44:02;;;;;;;;;;;;;;;19.72;37.96;101354.03;3093754;28;115836;-60
2021/01/03 04:45:45;;;;;;;;;;;;;;;19.68;38.07;101353.78;3097447;28;114854;-59
2021/01/03 04:47:16;;;;;;;;;;;;;;;19.70;37.83;101359.13;3095248;28;114326;-59
2021/01/03 04:48:50;;;;;;;;;;;;;;;19.68;37.94;101353.78;3092233;28;114334;-59
2021/01/03 04:50:22;;;;;;;;;;;;;;;19.67;37.85;101348.50;3087184;28;114287;-59
2021/01/03 04:51:54;;;;;;;;;;;;;;;19.68;37.97;101350.97;3097231;28;114256;-59
2021/01/03 04:53:38;;;;;;;;;;;;;;;19.65;37.96;101348.78;3095346;28;114841;-59
2021/01/03 04:55:16;;;;;;;;;;;;;;;19.64;38.05;101347.09;3087159;28;114230;-59
2021/01/03 04:56:53;;;;;;;;;;;;;;;19.63;37.96;101347.38;3097305;28;113791;-59
2021/01/03 04:58:29;;;;;;;;;;;;;;;19.64;37.99;101355.50;3098755;28;114277;-59
2021/01/03 05:00:01;;;;;;;;;;;;;;;19.61;37.86;101353.31;3086364;28;114394;-59
2021/01/03 05:01:35;;;;;;;;;;;;;;;19.60;37.92;101353.59;3092623;28;113959;-59
2021/01/03 05:03:08;;;;;;;;;;;;;;;19.59;37.92;101349.09;3087659;28;114565;-59
2021/01/03 05:04:48;;;;;;;;;;;;;;;19.58;37.71;101351.06;3084127;28;115619;-59
2021/01/03 05:06:24;;;;;;;;;;;;;;;19.57;37.85;101359.78;3086490;28;113891;-58
2021/01/03 05:08:02;;;;;;;;;;;;;;;19.55;37.96;101351.66;3091655;28;114423;-58
2021/01/03 05:09:34;;;;;;;;;;;;;;;19.55;38.03;101351.66;3091775;28;113921;-59
2021/01/03 05:11:07;;;;;;;;;;;;;;;19.53;38.07;101353.94;3093357;28;114629;-58
2021/01/03 05:12:59;;;;;;;;;;;;;;;19.51;38.16;101357.00;3095187;28;114505;-59
2021/01/03 05:14:30;;;;;;;;;;;;;;;19.51;38.11;101362.63;3085402;28;115068;-59
2021/01/03 05:16:01;;;;;;;;;;;;;;;19.49;38.11;101353.66;3086414;28;115044;-59
2021/01/03 05:17:32;;;;;;;;;;;;;;;19.47;38.00;101361.53;3086364;28;115327;-59
2021/01/03 05:19:04;;;;;;;;;;;;;;;19.49;37.89;101358.41;3092337;28;113817;-57
2021/01/03 05:20:35;;;;;;;;;;;;;;;19.47;38.12;101364.34;3085836;28;115530;-58
2021/01/03 05:22:06;;;;;;;;;;;;;;;19.45;38.17;101360.97;3093709;28;115269;-59
2021/01/03 05:23:39;;;;;;;;;;;;;;;19.45;38.13;101365.72;3086890;28;115431;-59
2021/01/03 05:25:12;;;;;;;;;;;;;;;19.44;38.15;101364.09;3086129;28;114503;-58
2021/01/03 05:26:44;;;;;;;;;;;;;;;19.41;38.15;101361.81;3086822;28;114561;-57
2021/01/03 05:28:25;;;;;;;;;;;;;;;19.42;38.23;101355.09;3093618;28;115830;-57
2021/01/03 05:30:16;;;;;;;;;;;;;;;19.40;38.29;101355.38;3088071;28;114931;-56
2021/01/03 05:31:57;;;;;;;;;;;;;;;19.40;38.20;101351.72;3102270;28;114612;-56
2021/01/03 05:33:30;;;;;;;;;;;;;;;19.38;38.40;101357.63;3097023;28;114961;-57
2021/01/03 05:35:01;;;;;;;;;;;;;;;19.36;38.27;101357.06;3093915;28;115710;-56
2021/01/03 05:36:32;;;;;;;;;;;;;;;19.36;38.18;101359.03;3086648;28;115922;-57
2021/01/03 05:38:04;;;;;;;;;;;;;;;19.35;38.29;101369.41;3099057;28;114575;-56
2021/01/03 05:39:36;;;;;;;;;;;;;;;19.33;38.17;101368.88;3097878;28;116433;-56
2021/01/03 05:41:16;;;;;;;;;;;;;;;19.31;38.37;101359.06;3097508;28;115003;-57
2021/01/03 05:42:47;;;;;;;;;;;;;;;19.30;38.22;101357.41;3098869;28;115176;-57
2021/01/03 05:44:28;;;;;;;;;;;;;;;19.29;38.17;101358.53;3092573;28;114445;-57
2021/01/03 05:46:09;;;;;;;;;;;;;;;19.29;38.47;101361.34;3086091;28;115368;-57
2021/01/03 05:48:02;;;;;;;;;;;;;;;19.28;38.14;101348.44;3094647;28;115307;-57
2021/01/03 05:49:33;;;;;;;;;;;;;;;19.25;38.28;101357.44;3098777;28;116410;-57
2021/01/03 05:51:23;;;;;;;;;;;;;;;19.26;38.16;101359.13;3098297;28;115780;-57
2021/01/03 05:52:59;;;;;;;;;;;;;;;19.23;38.27;101354.94;3097590;28;115747;-57
2021/01/03 05:54:32;;;;;;;;;;;;;;;19.22;38.28;101363.59;3099767;28;115941;-57
2021/01/03 05:56:12;;;;;;;;;;;;;;;19.19;38.43;101364.19;3096771;28;114195;-57
2021/01/03 05:57:45;;;;;;;;;;;;;;;19.21;38.28;101370.38;3098408;28;113800;-57
2021/01/03 05:59:27;;;;;;;;;;;;;;;19.18;38.28;101368.97;3102377;28;117245;-58
2021/01/03 06:01:18;;;;;;;;;;;;;;;19.17;38.40;101374.88;3098261;28;113867;-58
2021/01/03 06:02:51;;;;;;;;;;;;;;;19.16;38.45;101373.19;3099048;28;114539;-57
2021/01/03 06:04:23;;;;;;;;;;;;;;;19.16;38.44;101368.44;3096309;28;115782;-57
2021/01/03 06:05:56;;;;;;;;;;;;;;;19.15;38.47;101371.50;3096482;28;113834;-57
2021/01/03 06:07:28;;;;;;;;;;;;;;;19.15;38.60;101363.09;3096566;28;114050;-58
2021/01/03 06:09:00;;;;;;;;;;;;;;;19.13;38.34;101369.00;3097974;28;114123;-58
2021/01/03 06:10:32;;;;;;;;;;;;;;;19.11;38.58;101368.44;3096861;28;113770;-58
2021/01/03 06:12:07;;;;;;;;;;;;;;;19.11;38.44;101374.06;3098275;28;114584;-57
2021/01/03 06:13:49;;;;;;;;;;;;;;;19.10;38.49;101367.63;3103644;28;114637;-58
2021/01/03 06:15:20;;;;;;;;;;;;;;;19.10;38.35;101378.81;3098116;28;114232;-58
2021/01/03 06:17:26;;;;;;;;;;;;;;;19.11;38.49;101376.84;3100558;28;114525;-58
2021/01/03 06:19:00;;;;;;;;;;;;;;;19.18;38.52;101373.72;3082829;28;116574;-59
2021/01/03 06:20:31;;;;;;;;;;;;;;;19.23;38.19;101377.34;3086308;28;115692;-58
2021/01/03 06:22:09;;;;;;;;;;;;;;;19.28;38.25;101376.47;3097337;28;114564;-58
2021/01/03 06:23:46;;;;;;;;;;;;;;;19.32;38.44;101384.00;3096456;28;114593;-59
2021/01/03 06:25:36;;;;;;;;;;;;;;;19.36;38.21;101376.69;3085614;28;114118;-58
2021/01/03 06:27:13;;;;;;;;;;;;;;;19.41;38.41;101385.06;3097178;28;115174;-58
2021/01/03 06:28:51;;;;;;;;;;;;;;;19.44;38.58;101384.50;3095264;28;115506;-58
2021/01/03 06:30:25;;;;;;;;;;;;;;;19.50;38.56;101385.31;3089097;28;114157;-58
2021/01/03 06:32:15;;;;;;;;;;;;;;;19.53;38.77;101384.75;3091029;28;114469;-58
2021/01/03 06:33:46;;;;;;;;;;;;;;;19.58;38.88;101383.88;3096271;28;115260;-58
2021/01/03 06:35:36;;;;;;;;;;;;;;;19.62;38.65;101384.97;3092521;28;115541;-58
2021/01/03 06:37:11;;;;;;;;;;;;;;;19.70;38.97;101382.38;3091670;28;116889;-58
2021/01/03 06:38:42;;;;;;;;;;;;;;;19.74;38.91;101375.06;3091945;28;115378;-59
2021/01/03 06:40:19;;;;;;;;;;;;;;;19.80;38.70;101373.06;3107928;27;113967;-58
2021/01/03 06:41:56;;;;;;;;;;;;;;;19.85;38.67;101379.44;3106834;28;116501;-58
2021/01/03 06:43:33;;;;;;;;;;;;;;;19.90;38.55;101376.59;3099771;28;114563;-59
2021/01/03 06:45:23;;;;;;;;;;;;;;;19.97;38.68;101373.47;3098973;28;115088;-59
2021/01/03 06:46:59;;;;;;;;;;;;;;;20.02;38.36;101379.03;3106211;28;115905;-58
2021/01/03 06:48:41;;;;;;;;;;;;;;;20.09;38.54;101373.91;3094945;28;114618;-58
2021/01/03 06:50:31;;;;;;;;;;;;;;;20.14;38.24;101378.63;3086294;28;115916;-59
2021/01/03 06:52:03;;;;;;;;;;;;;;;20.20;38.25;101380.25;3098273;28;116185;-59
2021/01/03 06:53:40;;;;;;;;;;;;;;;20.25;38.25;101383.00;3097235;28;115053;-57
2021/01/03 06:55:11;;;;;;;;;;;;;;;20.29;39.00;101376.50;3087252;28;115738;-58
2021/01/03 06:56:56;;;;;;;;;;;;;;;20.35;38.62;101385.75;3109976;28;114620;-58
2021/01/03 06:58:30;;;;;;;;;;;;;;;20.40;38.13;101378.09;3089624;28;115063;-58
2021/01/03 07:00:14;;;;;;;;;;;;;;;20.45;37.98;101377.19;3086710;28;115759;-58
2021/01/03 07:01:45;;;;;;;;;;;;;;;20.49;38.15;101383.88;3098284;28;114665;-58
2021/01/03 07:03:25;;;;;;;;;;;;;;;20.53;38.13;101382.19;3086181;28;115835;-58
2021/01/03 07:05:03;;;;;;;;;;;;;;;20.58;37.89;101384.09;3096857;28;114607;-57
2021/01/03 07:06:36;;;;;;;;;;;;;;;20.63;37.84;101389.63;3096818;28;114209;-57
2021/01/03 07:08:09;;;;;;;;;;;;;;;20.66;37.97;101387.09;3088950;28;114610;-57
2021/01/03 07:09:59;;;;;;;;;;;;;;;20.70;37.76;101393.78;3094049;28;114076;-57
2021/01/03 07:11:38;;;;;;;;;;;;;;;20.75;37.71;101392.88;3094814;28;114104;-57
2021/01/03 07:13:25;;;;;;;;;;;;;;;20.77;37.41;101397.03;3097695;28;113999;-57
2021/01/03 07:14:56;;;;;;;;;;;;;;;20.81;37.64;101386.88;3101688;27;113818;-57
2021/01/03 07:16:46;;;;;;;;;;;;;;;20.85;37.29;101382.34;3098002;28;114544;-58
2021/01/03 07:18:23;;;;;;;;;;;;;;;20.91;37.51;101385.91;3091963;28;114261;-57
2021/01/03 07:20:02;;;;;;;;;;;;;;;20.95;37.46;101392.59;3091311;28;114619;-57
2021/01/03 07:21:40;;;;;;;;;;;;;;;20.99;37.09;101384.41;3092453;28;114251;-57
2021/01/03 07:23:15;;;;;;;;;;;;;;;21.03;37.29;101389.13;3092586;28;114287;-57
2021/01/03 07:24:46;;;;;;;;;;;;;;;21.06;36.96;101382.91;3092388;28;114911;-58
2021/01/03 07:26:22;;;;;;;;;;;;;;;21.09;37.15;101390.75;3093695;28;114036;-57
2021/01/03 07:28:10;;;;;;;;;;;;;;;21.12;36.86;101383.69;3102282;28;114619;-57
2021/01/03 07:29:49;;;;;;;;;;;;;;;21.16;36.70;101393.22;3091893;28;115251;-57
2021/01/03 07:31:20;;;;;;;;;;;;;;;21.19;36.69;101399.06;3096916;28;113822;-57
2021/01/03 07:32:59;;;;;;;;;;;;;;;21.23;36.66;101394.50;3098453;28;114850;-57
2021/01/03 07:34:33;;;;;;;;;;;;;;;21.26;36.63;101393.06;3096264;28;115083;-57
2021/01/03 07:36:16;;;;;;;;;;;;;;;21.31;36.44;101393.00;3107988;28;115152;-58
2021/01/03 07:37:51;;;;;;;;;;;;;;;21.34;36.74;101397.19;3096801;28;114553;-57
2021/01/03 07:39:30;;;;;;;;;;;;;;;21.36;36.49;101395.72;3096230;28;114074;-57
2021/01/03 07:41:04;;;;;;;;;;;;;;;21.39;36.85;101394.31;3106239;28;116776;-57
2021/01/03 07:42:55;;;;;;;;;;;;;;;21.42;36.55;101394.53;3100952;28;115112;-57
2021/01/03 07:44:27;;;;;;;;;;;;;;;21.46;36.52;101401.22;3093616;28;115083;-57
2021/01/03 07:45:58;;;;;;;;;;;;;;;21.49;36.65;101397.78;3096067;28;115113;-57
2021/01/03 07:47:33;;;;;;;;;;;;;;;21.51;36.35;101394.69;3094744;28;114132;-57
2021/01/03 07:49:23;;;;;;;;;;;;;;;21.54;36.22;101396.88;3094828;28;114401;-58
2021/01/03 07:50:55;;;;;;;;;;;;;;;21.58;36.54;101406.38;3095439;28;115085;-57
2021/01/03 07:52:27;;;;;;;;;;;;;;;21.60;36.47;101398.47;3097485;28;116046;-57
2021/01/03 07:53:59;;;;;;;;;;;;;;;21.62;36.43;101399.81;3103722;28;116125;-57
2021/01/03 07:55:32;;;;;;;;;;;;;;;21.65;36.09;101399.22;3097563;28;115075;-57
2021/01/03 07:57:08;;;;;;;;;;;;;;;21.67;36.40;101394.13;3095608;28;116235;-57
2021/01/03 07:58:39;;;;;;;;;;;;;;;21.70;36.35;101393.53;3093174;28;115119;-57
2021/01/03 08:00:13;;;;;;;;;;;;;;;21.73;36.34;101397.69;3093120;28;116533;-57
2021/01/03 08:01:49;;;;;;;;;;;;;;;21.74;36.33;101400.22;3092538;28;115858;-57